KNQI/NQI METAR and TAF weather

Enter ICAO airport designator
Station Type Date Time Source
KNQI METAR 2022/05/24 11:56 UTC NOAA

KNQI 241156Z 16016G28KT 10SM FEW030 BKN120 OVC200 22/19 A2964 RMK AO2 PK WND 14032/1140 RAE54 SLP032 T2 SET P0000 60020 70042


Station Type Date Time Source
KNQI Decoded METAR 2022/05/24 11:56 UTC NOAA

KINGSVILLE NAS, TX, United States (KNQI) 27-50N 097-81W 15M
May 24, 2022 - 07:56 AM EDT / 2022.05.24 1156 UTC
Wind: from the SSE (160 degrees) at 18 MPH (16 KT) gusting to 32 MPH (28 KT):0
Visibility: 10 mile(s):0
Sky conditions: overcast
Precipitation last hour: A trace
Temperature: 72.0 F (22.2 C)
Dew Point: 66.9 F (19.4 C)
Relative Humidity: 84%
Pressure (altimeter): 29.64 in. Hg (1003 hPa)
Pressure tendency: 0.25 inches (8.6 hPa) lower than three hours ago
ob: KNQI 241156Z 16016G28KT 10SM FEW030 BKN120 OVC200 22/19 A2964 RMK AO2 PK WND 14032/1140 RAE54 SLP032 T2 SET P0000 60020 70042 T02220194 10239 20211 58086
cycle: 12

Station Type Date Time Source
KNQI TAF 2022/05/24 07:12 UTC NOAA

TAF TAF KNQI 2407/2507 13013G23KT 6000 VCTS BR BKN015CB BKN100 510084 QNH2976INS
TEMPO 2407/2412 VRB30G50KT 1600 +TSRA BR BKN005 OVC012CB
BECMG 2413/2415 12012G18KT 8000 -SHRA BR SCT008 BKN015 OVC030 QNH2972INS
BECMG 2416/2418 15018G25KT 9999 NSW SCT015 BKN030 OVC180 510003 QNH2968INS
BECMG 2420/2422 15020G28KT 9999 SCT030 BKN060 BKN250 QNH2943INS
BECMG 2505/2507 15015G20KT 9999 SCT015 BKN030 QNH2968INS AUTOMATED SENSOR METWATCH 2407 TIL 2412 T22/2412Z T35/2419Z FN00253

Example: see airport list